Time;durP1;ratioP1;P1;durP2;ratioP2;P2;SDS_P1;SDS_P2;PMS_P1;PMS_P2;Temp;Humidity;BMP_temperature;BMP_pressure;BME280_temperature;BME280_humidity;BME280_pressure;Samples;Min_cycle;Max_cycle;Signal;HPM_P1;HPM_P2
2022/02/17 00:00:30;;;;;;;0.47;0.15;;;13.30;99.90;;;;;;4974284;28;20488;-84
2022/02/17 00:02:55;;;;;;;0.10;0.10;;;13.30;99.90;;;;;;4974577;28;20482;-84
2022/02/17 00:05:22;;;;;;;0.00;0.00;;;13.40;99.90;;;;;;4976022;28;20106;-83
2022/02/17 00:07:49;;;;;;;0.00;0.00;;;13.40;99.90;;;;;;4974690;28;20080;-84
2022/02/17 00:10:15;;;;;;;0.25;0.00;;;13.40;99.90;;;;;;4974977;28;20031;-83
2022/02/17 00:12:41;;;;;;;0.10;0.00;;;13.40;99.90;;;;;;4974448;28;20030;-83
2022/02/17 00:15:08;;;;;;;1.17;0.10;;;13.50;99.90;;;;;;4974749;28;20027;-84
2022/02/17 00:17:34;;;;;;;0.30;0.10;;;13.50;99.90;;;;;;4974631;28;20027;-85
2022/02/17 00:20:00;;;;;;;0.30;0.00;;;13.70;99.90;;;;;;4990023;28;20142;-84
2022/02/17 00:22:25;;;;;;;0.20;0.00;;;13.70;99.90;;;;;;4974017;28;20027;-83
2022/02/17 00:24:51;;;;;;;0.15;0.00;;;13.70;99.90;;;;;;4957499;28;20042;-85
2022/02/17 00:27:18;;;;;;;0.00;0.00;;;13.70;99.90;;;;;;4974545;28;20023;-85
2022/02/17 00:29:44;;;;;;;0.22;0.13;;;13.70;99.90;;;;;;4973642;28;20027;-92
2022/02/17 00:32:09;;;;;;;0.65;0.00;;;13.70;99.90;;;;;;4975237;28;20033;-92
2022/02/17 00:34:35;;;;;;;0.00;0.00;;;13.70;99.90;;;;;;4974704;28;20018;-92
2022/02/17 00:37:04;;;;;;;0.10;0.00;;;13.70;99.90;;;;;;4974544;28;20027;-89
2022/02/17 00:39:31;;;;;;;0.63;0.10;;;13.80;99.90;;;;;;4973801;28;20487;-89
2022/02/17 00:41:57;;;;;;;0.52;0.10;;;13.80;99.90;;;;;;4972875;28;20031;-89
2022/02/17 00:44:24;;;;;;;0.40;0.10;;;13.80;99.90;;;;;;4973644;28;20049;-89
2022/02/17 00:46:50;;;;;;;0.10;0.10;;;13.80;99.90;;;;;;4974419;28;20125;-90
2022/02/17 00:49:15;;;;;;;0.88;0.10;;;13.80;99.90;;;;;;4975353;28;20484;-91
2022/02/17 00:51:41;;;;;;;1.95;0.20;;;13.90;99.90;;;;;;4973835;28;20040;-85
2022/02/17 00:54:07;;;;;;;1.40;0.20;;;13.90;99.90;;;;;;4974247;28;20037;-90
2022/02/17 00:56:32;;;;;;;0.30;0.00;;;13.80;99.90;;;;;;4975407;28;20478;-91
2022/02/17 00:58:58;;;;;;;0.82;0.17;;;13.90;99.90;;;;;;4973545;28;20027;-92
2022/02/17 01:01:24;;;;;;;0.13;0.10;;;13.80;99.90;;;;;;4974217;28;20451;-91
2022/02/17 01:03:50;;;;;;;0.30;0.10;;;13.80;99.90;;;;;;4973437;28;20031;-92
2022/02/17 01:06:15;;;;;;;0.38;0.10;;;13.80;99.90;;;;;;4975400;28;20117;-93
2022/02/17 01:08:41;;;;;;;0.52;0.10;;;13.80;99.90;;;;;;4973786;28;20034;-88
2022/02/17 01:11:07;;;;;;;0.40;0.30;;;13.80;99.90;;;;;;4973856;28;20057;-93
2022/02/17 01:13:32;;;;;;;0.30;0.10;;;13.80;99.90;;;;;;4973708;28;20027;-90
2022/02/17 01:15:58;;;;;;;0.22;0.10;;;13.80;99.90;;;;;;4973355;28;20027;-91
2022/02/17 01:18:24;;;;;;;0.22;0.03;;;13.80;99.90;;;;;;4974774;28;20185;-92
2022/02/17 01:20:50;;;;;;;0.73;0.10;;;13.80;99.90;;;;;;4976992;28;20030;-92
2022/02/17 01:23:16;;;;;;;0.08;0.08;;;13.80;99.90;;;;;;4977140;28;20038;-93
2022/02/17 01:25:43;;;;;;;1.65;0.10;;;13.80;99.90;;;;;;4976779;28;20030;-86
2022/02/17 01:28:09;;;;;;;1.40;0.10;;;13.80;99.90;;;;;;4976890;28;20031;-92
2022/02/17 01:30:34;;;;;;;0.28;0.00;;;13.80;99.90;;;;;;4994567;28;20031;-93
2022/02/17 01:33:00;;;;;;;0.63;0.10;;;13.80;99.90;;;;;;4976970;28;20029;-93
2022/02/17 01:35:26;;;;;;;1.48;0.10;;;13.80;99.90;;;;;;4977451;28;20026;-90
2022/02/17 01:37:52;;;;;;;0.75;0.20;;;13.80;99.90;;;;;;4976786;28;20546;-90
2022/02/17 01:40:18;;;;;;;1.35;0.10;;;13.80;99.90;;;;;;4977346;28;20041;-90
2022/02/17 01:42:44;;;;;;;0.63;0.10;;;13.80;99.90;;;;;;4976860;28;20026;-85
2022/02/17 01:45:10;;;;;;;1.25;0.10;;;13.80;99.90;;;;;;4977256;28;20080;-90
2022/02/17 01:47:36;;;;;;;0.10;0.10;;;13.80;99.90;;;;;;4993888;28;20111;-91
2022/02/17 01:50:03;;;;;;;0.10;0.00;;;13.70;99.90;;;;;;4976728;28;20034;-90
2022/02/17 01:52:29;;;;;;;0.50;0.10;;;13.70;99.90;;;;;;4977002;28;20038;-90
2022/02/17 01:54:55;;;;;;;0.00;0.00;;;13.70;99.90;;;;;;4979221;28;20023;-88
2022/02/17 01:57:26;;;;;;;0.20;0.00;;;13.60;99.90;;;;;;4980619;28;20109;-91
2022/02/17 01:59:52;;;;;;;0.00;0.00;;;13.60;99.90;;;;;;4980332;28;20113;-89
2022/02/17 02:02:18;;;;;;;0.20;0.05;;;13.60;99.90;;;;;;4980555;28;20495;-88
2022/02/17 02:04:43;;;;;;;0.52;0.00;;;13.60;99.90;;;;;;4997060;28;20045;-85
2022/02/17 02:07:10;;;;;;;0.10;0.10;;;13.60;99.90;;;;;;4980541;28;20030;-89
2022/02/17 02:09:37;;;;;;;0.10;0.00;;;13.60;99.90;;;;;;4980516;28;20061;-88
2022/02/17 02:12:03;;;;;;;0.10;0.00;;;13.60;99.90;;;;;;4997240;28;20118;-90
2022/02/17 02:14:29;;;;;;;0.20;0.10;;;13.60;99.90;;;;;;4980574;28;20149;-90
2022/02/17 02:16:56;;;;;;;0.47;0.10;;;13.60;99.90;;;;;;4979658;28;20018;-91
2022/02/17 02:19:23;;;;;;;0.30;0.10;;;13.60;99.90;;;;;;4979974;28;20050;-90
2022/02/17 02:21:48;;;;;;;0.08;0.00;;;13.60;99.90;;;;;;4979916;28;20117;-91
2022/02/17 02:24:14;;;;;;;0.00;0.00;;;13.60;99.90;;;;;;4980770;28;20057;-92
2022/02/17 02:26:40;;;;;;;0.35;0.00;;;13.60;99.90;;;;;;4997496;28;20062;-90
2022/02/17 02:29:06;;;;;;;0.38;0.00;;;13.60;99.90;;;;;;4979551;28;20032;-90
2022/02/17 02:31:31;;;;;;;0.05;0.00;;;13.70;99.90;;;;;;4980075;28;20034;-87
2022/02/17 02:33:57;;;;;;;0.10;0.00;;;13.70;99.90;;;;;;4979594;28;20038;-89
2022/02/17 02:36:23;;;;;;;0.30;0.10;;;13.70;99.90;;;;;;4979884;28;20062;-88
2022/02/17 02:38:49;;;;;;;0.52;0.35;;;13.60;99.90;;;;;;4979378;28;20026;-88
2022/02/17 02:41:14;;;;;;;0.00;0.00;;;13.70;99.90;;;;;;4979632;28;20034;-91
2022/02/17 02:43:40;;;;;;;0.00;0.00;;;13.70;99.90;;;;;;4979885;28;20495;-90
2022/02/17 02:46:07;;;;;;;0.47;0.00;;;13.70;99.90;;;;;;4979001;28;20038;-89
2022/02/17 02:48:33;;;;;;;0.00;0.00;;;13.70;99.90;;;;;;4979755;28;20022;-89
2022/02/17 02:50:59;;;;;;;0.00;0.00;;;13.70;99.90;;;;;;4979164;28;20495;-90
2022/02/17 02:53:24;;;;;;;0.98;0.20;;;13.70;99.90;;;;;;4979224;28;20391;-88
2022/02/17 02:55:50;;;;;;;0.38;0.10;;;13.70;99.90;;;;;;4979025;28;20026;-88
2022/02/17 02:58:18;;;;;;;0.10;0.00;;;13.80;99.90;;;;;;4979403;28;20113;-90
2022/02/17 03:00:46;;;;;;;0.10;0.00;;;13.80;99.90;;;;;;4979390;28;20121;-90
2022/02/17 03:03:12;;;;;;;0.40;0.00;;;13.80;99.90;;;;;;4979073;28;20038;-89
2022/02/17 03:05:39;;;;;;;0.10;0.00;;;13.80;99.90;;;;;;4978585;28;20061;-89
2022/02/17 03:08:06;;;;;;;1.60;0.10;;;13.80;99.90;;;;;;4996262;28;20133;-91
2022/02/17 03:10:31;;;;;;;1.00;0.10;;;13.80;99.90;;;;;;4979052;28;20038;-89
2022/02/17 03:12:58;;;;;;;0.22;0.00;;;13.80;99.90;;;;;;4978357;28;20479;-90
2022/02/17 03:15:26;;;;;;;0.25;0.10;;;13.80;99.90;;;;;;4979656;28;20038;-91
2022/02/17 03:17:52;;;;;;;0.45;0.15;;;13.90;99.90;;;;;;4978870;28;20057;-91
2022/02/17 03:20:19;;;;;;;0.65;0.10;;;13.90;99.90;;;;;;4979013;28;20514;-91
2022/02/17 03:22:44;;;;;;;0.17;0.00;;;13.80;99.90;;;;;;4996593;28;20072;-90
2022/02/17 03:25:12;;;;;;;0.20;0.00;;;13.80;99.90;;;;;;4996517;28;20761;-91
2022/02/17 03:27:38;;;;;;;0.75;0.00;;;13.90;99.90;;;;;;4979455;28;20483;-91
2022/02/17 03:30:07;;;;;;;0.10;0.00;;;13.80;99.90;;;;;;4979124;28;20030;-92
2022/02/17 03:32:34;;;;;;;1.88;0.00;;;13.90;99.90;;;;;;4979637;28;20216;-91
2022/02/17 03:35:00;;;;;;;0.00;0.00;;;13.90;99.90;;;;;;4978291;28;20037;-91
2022/02/17 03:37:26;;;;;;;0.10;0.00;;;13.90;99.90;;;;;;4978954;28;20104;-91
2022/02/17 03:39:51;;;;;;;0.00;0.00;;;13.80;99.90;;;;;;4995541;28;20026;-85
2022/02/17 03:42:17;;;;;;;0.00;0.00;;;13.90;99.90;;;;;;4978960;28;20038;-92
2022/02/17 03:44:43;;;;;;;0.00;0.00;;;13.80;99.90;;;;;;4978919;28;20027;-91
2022/02/17 03:47:08;;;;;;;0.00;0.00;;;13.90;99.90;;;;;;4978091;28;20018;-89
2022/02/17 03:49:34;;;;;;;0.08;0.00;;;13.80;99.90;;;;;;4978103;28;20052;-92
2022/02/17 03:52:00;;;;;;;0.00;0.00;;;13.80;99.90;;;;;;4978166;28;20035;-91
2022/02/17 03:54:25;;;;;;;0.00;0.00;;;13.70;99.90;;;;;;4978690;28;20034;-90
2022/02/17 03:56:51;;;;;;;0.10;0.00;;;13.70;99.90;;;;;;4978560;28;20435;-85
2022/02/17 03:59:16;;;;;;;0.05;0.00;;;13.70;99.90;;;;;;4978369;28;20022;-89
2022/02/17 04:01:43;;;;;;;0.05;0.00;;;13.80;99.90;;;;;;4995183;28;20114;-88
2022/02/17 04:04:10;;;;;;;0.20;0.00;;;13.80;99.90;;;;;;4977318;28;20129;-87
2022/02/17 04:06:36;;;;;;;0.25;0.05;;;13.80;99.90;;;;;;4995299;28;20053;-88
2022/02/17 04:09:04;;;;;;;0.70;0.08;;;13.80;99.90;;;;;;4994433;28;20022;-87
2022/02/17 04:11:29;;;;;;;0.25;0.00;;;13.70;99.90;;;;;;4994989;28;20476;-88
2022/02/17 04:13:55;;;;;;;0.00;0.00;;;13.70;99.90;;;;;;4977845;28;20105;-89
2022/02/17 04:16:20;;;;;;;0.08;0.00;;;13.70;99.90;;;;;;4977349;28;20190;-88
2022/02/17 04:18:48;;;;;;;0.10;0.00;;;13.70;99.90;;;;;;4974186;28;20055;-89
2022/02/17 04:21:15;;;;;;;0.00;0.00;;;13.60;99.90;;;;;;4973751;28;20065;-88
2022/02/17 04:23:44;;;;;;;0.00;0.00;;;13.60;99.90;;;;;;4974566;28;20144;-90
2022/02/17 04:26:14;;;;;;;0.00;0.00;;;13.70;99.90;;;;;;4974094;28;20109;-89
2022/02/17 04:28:41;;;;;;;0.10;0.00;;;13.60;99.90;;;;;;4974743;28;20031;-90
2022/02/17 04:31:07;;;;;;;0.03;0.00;;;13.50;99.90;;;;;;4975602;28;20029;-90
2022/02/17 04:33:34;;;;;;;0.00;0.00;;;13.60;99.90;;;;;;4974828;28;20113;-93
2022/02/17 04:36:00;;;;;;;0.70;0.00;;;13.50;99.90;;;;;;4974439;28;20031;-90
2022/02/17 04:38:25;;;;;;;0.75;0.10;;;13.50;99.90;;;;;;4974003;28;20033;-92
2022/02/17 04:43:35;;;;;;;0.10;0.10;;;13.40;99.90;;;;;;4975516;28;20387;-93
2022/02/17 04:46:01;;;;;;;0.10;0.00;;;13.40;99.90;;;;;;4973874;28;20023;-91
2022/02/17 04:48:26;;;;;;;0.17;0.00;;;13.40;99.90;;;;;;4974313;28;20030;-90
2022/02/17 04:50:52;;;;;;;0.00;0.00;;;13.30;99.90;;;;;;4975275;28;20469;-87
2022/02/17 04:53:18;;;;;;;0.00;0.00;;;13.30;99.90;;;;;;4974344;28;20030;-91
2022/02/17 04:55:43;;;;;;;0.22;0.08;;;13.20;99.90;;;;;;4974466;28;20027;-91
2022/02/17 04:58:09;;;;;;;2.60;0.05;;;13.20;99.90;;;;;;4975035;28;20018;-91
2022/02/17 05:00:35;;;;;;;1.75;0.30;;;13.10;99.90;;;;;;4974087;28;20483;-90
2022/02/17 05:03:00;;;;;;;1.75;0.10;;;13.10;99.90;;;;;;4973910;28;20038;-90
2022/02/17 05:05:26;;;;;;;1.35;0.50;;;13.10;99.90;;;;;;4974644;28;20031;-91
2022/02/17 05:07:52;;;;;;;1.65;0.45;;;13.10;99.90;;;;;;4974497;28;20178;-91
2022/02/17 05:10:18;;;;;;;3.85;0.60;;;13.20;99.90;;;;;;4974667;28;20035;-92
2022/02/17 05:12:43;;;;;;;3.30;0.40;;;13.20;99.90;;;;;;4974154;28;20027;-91
2022/02/17 05:15:09;;;;;;;3.45;0.40;;;13.20;99.90;;;;;;4973317;28;20023;-92
2022/02/17 05:17:35;;;;;;;5.18;0.60;;;13.20;99.90;;;;;;4973777;28;20065;-91
2022/02/17 05:20:00;;;;;;;0.98;0.40;;;13.20;99.90;;;;;;4987351;28;20488;-91
2022/02/17 05:22:26;;;;;;;5.03;0.40;;;13.20;99.90;;;;;;4977165;28;20081;-92
2022/02/17 05:24:52;;;;;;;5.00;0.70;;;13.10;99.90;;;;;;4976682;28;20053;-91
2022/02/17 05:27:17;;;;;;;4.32;0.47;;;13.10;99.90;;;;;;4976640;28;20033;-87
2022/02/17 05:29:43;;;;;;;8.18;0.90;;;13.00;99.90;;;;;;4979056;28;20490;-89
2022/02/17 05:32:08;;;;;;;2.35;0.70;;;13.00;99.90;;;;;;4980521;28;20030;-88
2022/02/17 05:34:34;;;;;;;5.05;1.15;;;13.00;99.90;;;;;;4981097;28;20085;-87
2022/02/17 05:37:01;;;;;;;5.20;0.80;;;13.00;99.90;;;;;;4980751;28;20101;-90
2022/02/17 05:39:27;;;;;;;3.28;0.75;;;12.90;99.90;;;;;;4980788;28;20023;-88
2022/02/17 05:41:53;;;;;;;5.25;0.60;;;12.90;99.90;;;;;;4980872;28;20030;-89
2022/02/17 05:44:19;;;;;;;8.23;0.75;;;12.90;99.90;;;;;;4980059;28;20031;-91
2022/02/17 05:46:45;;;;;;;3.72;0.60;;;12.80;99.90;;;;;;4980695;28;20030;-92
2022/02/17 05:49:11;;;;;;;6.07;0.73;;;12.70;99.90;;;;;;4980397;28;20379;-91
2022/02/17 05:51:36;;;;;;;4.22;0.80;;;12.70;99.90;;;;;;4980455;28;20053;-90
2022/02/17 05:54:02;;;;;;;6.32;0.93;;;12.80;99.90;;;;;;4980333;28;20038;-90
2022/02/17 05:56:28;;;;;;;5.05;1.05;;;12.80;99.90;;;;;;4980799;28;20030;-90
2022/02/17 05:58:54;;;;;;;9.07;0.90;;;12.70;99.90;;;;;;4980809;28;20038;-92
2022/02/17 06:01:19;;;;;;;3.67;0.73;;;12.70;99.90;;;;;;4980364;28;20398;-92
2022/02/17 06:03:45;;;;;;;4.95;0.95;;;12.60;99.90;;;;;;4998340;28;20042;-92
2022/02/17 06:06:11;;;;;;;4.38;0.93;;;12.60;99.90;;;;;;4997435;28;20034;-91
2022/02/17 06:08:36;;;;;;;10.05;1.17;;;12.70;99.90;;;;;;4980612;28;20495;-91
2022/02/17 06:11:02;;;;;;;12.05;1.60;;;12.60;99.90;;;;;;4980037;28;20030;-91
2022/02/17 06:13:28;;;;;;;5.53;1.30;;;12.60;99.90;;;;;;4980287;28;20030;-91
2022/02/17 06:15:53;;;;;;;8.20;1.20;;;12.60;99.90;;;;;;4980403;28;20034;-90
2022/02/17 06:18:19;;;;;;;8.18;1.77;;;12.60;99.90;;;;;;4979497;28;20026;-90
2022/02/17 06:20:45;;;;;;;8.18;1.67;;;12.60;99.90;;;;;;4979947;28;20555;-92
2022/02/17 06:23:10;;;;;;;7.50;1.88;;;12.60;99.90;;;;;;4996191;28;20053;-92
2022/02/17 06:25:36;;;;;;;13.00;1.40;;;12.50;99.90;;;;;;4980357;28;20133;-91
2022/02/17 06:28:03;;;;;;;9.80;1.40;;;12.50;99.90;;;;;;4979860;28;20108;-85
2022/02/17 06:30:29;;;;;;;10.73;1.10;;;12.50;99.90;;;;;;4980253;28;20035;-90
2022/02/17 06:32:56;;;;;;;10.95;1.35;;;12.40;99.90;;;;;;4979428;28;20029;-91
2022/02/17 06:35:25;;;;;;;6.85;1.23;;;12.50;99.90;;;;;;4979225;28;20057;-90
2022/02/17 06:37:52;;;;;;;7.82;1.33;;;12.50;99.90;;;;;;4979614;28;20034;-91
2022/02/17 06:40:19;;;;;;;4.28;0.88;;;12.40;99.90;;;;;;4978737;28;20029;-91
2022/02/17 06:42:46;;;;;;;6.45;1.00;;;12.40;99.90;;;;;;4979841;28;20117;-91
2022/02/17 06:45:12;;;;;;;7.28;1.05;;;12.40;99.90;;;;;;4979713;28;20399;-91
2022/02/17 06:47:39;;;;;;;7.05;0.93;;;12.40;99.90;;;;;;4979735;28;20431;-90
2022/02/17 06:50:06;;;;;;;8.00;1.08;;;12.40;99.90;;;;;;4979352;28;20034;-90
2022/02/17 06:52:32;;;;;;;6.43;1.20;;;12.40;99.90;;;;;;4979660;28;20037;-89
2022/02/17 06:54:58;;;;;;;7.70;1.40;;;12.50;99.60;;;;;;4979562;28;20038;-89
2022/02/17 06:57:24;;;;;;;7.10;1.17;;;12.40;99.40;;;;;;4979195;28;20027;-90
2022/02/17 06:59:50;;;;;;;9.70;1.60;;;12.40;99.50;;;;;;4979565;28;20026;-90
2022/02/17 07:02:23;;;;;;;7.05;1.00;;;12.40;99.50;;;;;;4996197;28;20456;-91
2022/02/17 07:04:49;;;;;;;12.15;1.63;;;12.40;99.50;;;;;;4979762;28;20061;-92
2022/02/17 07:07:14;;;;;;;9.60;1.40;;;12.40;99.60;;;;;;4979262;28;20022;-93
2022/02/17 07:09:40;;;;;;;9.82;1.75;;;12.40;99.60;;;;;;4979339;28;20538;-91
2022/02/17 07:12:07;;;;;;;8.02;1.50;;;12.40;99.80;;;;;;4978514;28;20034;-91
2022/02/17 07:14:32;;;;;;;4.75;1.60;;;12.40;99.70;;;;;;4978731;28;20041;-92
2022/02/17 07:16:59;;;;;;;7.63;1.23;;;12.40;99.30;;;;;;4979440;28;20468;-92
2022/02/17 07:19:25;;;;;;;6.40;1.15;;;12.40;99.40;;;;;;4995267;28;20124;-92
2022/02/17 07:21:51;;;;;;;8.27;1.23;;;12.40;99.10;;;;;;4996342;28;20034;-91
2022/02/17 07:24:18;;;;;;;7.20;1.10;;;12.40;98.80;;;;;;4978353;28;20034;-91
2022/02/17 07:26:44;;;;;;;5.18;1.10;;;12.50;98.90;;;;;;4995663;28;20063;-91
2022/02/17 07:29:10;;;;;;;10.52;1.48;;;12.40;99.00;;;;;;4995150;28;20058;-91
2022/02/17 07:31:36;;;;;;;10.23;1.30;;;12.40;98.70;;;;;;4978844;28;20035;-85
2022/02/17 07:34:02;;;;;;;7.63;1.13;;;12.40;98.80;;;;;;4978541;28;20031;-82
2022/02/17 07:36:27;;;;;;;7.68;1.63;;;12.40;98.80;;;;;;4978199;28;20030;-86
2022/02/17 07:38:53;;;;;;;8.98;1.63;;;12.40;98.80;;;;;;4978548;28;20031;-86
2022/02/17 07:41:19;;;;;;;7.22;1.05;;;12.30;98.60;;;;;;4978100;28;20062;-87
2022/02/17 07:43:45;;;;;;;5.43;0.95;;;12.30;98.70;;;;;;4977901;28;20022;-85
2022/02/17 07:46:12;;;;;;;5.22;1.20;;;12.30;97.90;;;;;;4977835;28;20031;-85
2022/02/17 07:48:38;;;;;;;5.13;1.30;;;12.30;97.50;;;;;;4977538;28;20113;-85
2022/02/17 07:51:04;;;;;;;12.40;1.10;;;12.30;97.40;;;;;;4977869;28;20595;-84
2022/02/17 07:53:31;;;;;;;10.95;1.30;;;12.30;97.20;;;;;;4978082;28;20113;-89
2022/02/17 07:55:57;;;;;;;7.30;1.23;;;12.30;96.40;;;;;;4978610;28;20121;-91
2022/02/17 07:58:22;;;;;;;5.15;1.27;;;12.30;94.20;;;;;;4977985;28;20704;-91
2022/02/17 08:00:48;;;;;;;10.43;2.15;;;12.30;94.10;;;;;;4979324;28;20041;-92
2022/02/17 08:03:14;;;;;;;6.40;1.40;;;12.30;90.80;;;;;;4979404;28;20427;-90
2022/02/17 08:05:40;;;;;;;10.10;1.40;;;12.30;91.40;;;;;;4995578;28;20460;-92
2022/02/17 08:08:06;;;;;;;10.75;1.45;;;12.40;89.60;;;;;;4995351;28;20030;-86
2022/02/17 08:10:32;;;;;;;12.82;1.33;;;12.40;89.80;;;;;;4978160;28;20034;-92
2022/02/17 08:12:58;;;;;;;7.15;1.55;;;12.40;86.30;;;;;;4995062;28;20026;-88
2022/02/17 08:15:24;;;;;;;8.75;1.85;;;12.50;86.00;;;;;;4977627;28;20033;-89
2022/02/17 08:17:49;;;;;;;11.75;1.65;;;12.40;86.20;;;;;;4978457;28;20035;-89
2022/02/17 08:20:15;;;;;;;11.30;2.13;;;12.40;87.20;;;;;;4977332;28;20069;-88
2022/02/17 08:22:52;;;;;;;8.15;1.35;;;12.40;86.90;;;;;;4977778;28;20122;-91
2022/02/17 08:25:19;;;;;;;9.55;1.30;;;12.30;85.00;;;;;;4978515;28;20484;-89
2022/02/17 08:27:46;;;;;;;8.93;1.90;;;12.30;85.00;;;;;;4978073;28;20117;-90
2022/02/17 08:30:13;;;;;;;17.63;2.00;;;12.30;87.10;;;;;;4995123;28;20030;-92
2022/02/17 08:32:39;;;;;;;10.50;1.52;;;12.30;85.80;;;;;;4994996;28;20101;-90
2022/02/17 08:35:07;;;;;;;11.50;2.00;;;12.30;85.40;;;;;;4977785;28;20026;-87
2022/02/17 08:37:32;;;;;;;10.85;1.50;;;12.30;86.20;;;;;;4977809;28;20034;-89
2022/02/17 08:39:58;;;;;;;11.90;1.83;;;12.30;88.60;;;;;;4995035;28;20447;-88
2022/02/17 08:42:24;;;;;;;9.65;1.70;;;12.30;89.30;;;;;;4976961;28;20089;-87
2022/02/17 08:44:50;;;;;;;11.23;1.65;;;12.30;89.90;;;;;;4977679;28;20030;-89
2022/02/17 08:47:19;;;;;;;11.32;1.67;;;12.40;89.60;;;;;;4977158;28;20022;-88
2022/02/17 08:49:45;;;;;;;15.98;2.15;;;12.40;89.60;;;;;;4977525;28;20037;-87
2022/02/17 08:52:11;;;;;;;10.07;2.63;;;12.40;88.30;;;;;;4993945;28;20475;-85
2022/02/17 08:54:37;;;;;;;11.57;1.83;;;12.50;89.50;;;;;;4977367;28;20022;-88
2022/02/17 08:57:03;;;;;;;11.77;2.15;;;12.50;87.80;;;;;;4977510;28;20084;-87
2022/02/17 08:59:30;;;;;;;13.15;2.25;;;12.50;86.10;;;;;;4976903;28;20026;-87
2022/02/17 09:01:55;;;;;;;14.18;2.22;;;12.50;82.60;;;;;;4977163;28;20027;-86
2022/02/17 09:04:21;;;;;;;15.68;2.35;;;12.50;84.60;;;;;;4994009;28;20037;-87
2022/02/17 09:06:48;;;;;;;10.30;2.05;;;12.50;85.00;;;;;;4978488;28;20030;-90
2022/02/17 09:09:17;;;;;;;12.27;2.22;;;12.50;86.90;;;;;;4977412;28;20030;-88
2022/02/17 09:11:43;;;;;;;11.38;2.42;;;12.50;86.80;;;;;;4978874;28;20041;-92
2022/02/17 09:14:09;;;;;;;12.30;2.13;;;12.50;86.00;;;;;;4980553;28;20023;-82
2022/02/17 09:16:36;;;;;;;13.40;1.92;;;12.50;84.50;;;;;;4978789;28;20085;-92
2022/02/17 09:19:04;;;;;;;15.00;2.20;;;12.50;85.20;;;;;;4982169;28;20057;-90
2022/02/17 09:21:31;;;;;;;14.77;2.10;;;12.50;84.10;;;;;;4979783;28;20049;-91
2022/02/17 09:23:56;;;;;;;12.35;2.05;;;12.50;84.70;;;;;;4980706;28;20055;-90
2022/02/17 09:26:22;;;;;;;12.90;2.13;;;12.50;85.20;;;;;;4978906;28;20098;-91
2022/02/17 09:28:48;;;;;;;15.43;2.63;;;12.50;84.70;;;;;;4980625;28;20030;-92
2022/02/17 09:31:23;;;;;;;13.65;2.17;;;12.50;84.60;;;;;;4977870;28;20038;-90
2022/02/17 09:33:56;;;;;;;13.82;2.05;;;12.50;82.80;;;;;;4978895;28;20053;-91
2022/02/17 09:36:26;;;;;;;15.95;2.08;;;12.50;81.00;;;;;;4974618;28;20049;-90
2022/02/17 09:38:52;;;;;;;20.00;2.35;;;12.50;80.00;;;;;;4994367;28;20467;-93
2022/02/17 09:41:20;;;;;;;13.52;2.50;;;12.50;80.30;;;;;;4977206;28;20041;-91
2022/02/17 09:43:46;;;;;;;13.77;2.45;;;12.50;80.90;;;;;;4979066;28;20038;-91
2022/02/17 09:46:15;;;;;;;20.40;2.75;;;12.50;83.90;;;;;;4979550;28;20030;-84
2022/02/17 09:48:40;;;;;;;15.35;2.22;;;12.40;83.20;;;;;;4979273;28;20119;-90
2022/02/17 09:51:07;;;;;;;14.55;2.38;;;12.40;85.80;;;;;;4979398;28;20047;-90
2022/02/17 09:53:33;;;;;;;13.88;2.20;;;12.40;86.70;;;;;;4979633;28;20025;-87
2022/02/17 09:55:59;;;;;;;18.52;2.47;;;12.30;84.60;;;;;;4979913;28;20062;-88
2022/02/17 09:58:25;;;;;;;20.73;2.30;;;12.30;87.00;;;;;;4981094;28;20026;-91
2022/02/17 10:00:53;;;;;;;13.85;2.15;;;12.30;87.30;;;;;;4997785;28;20042;-91
2022/02/17 10:03:28;;;;;;;20.13;2.58;;;12.30;88.50;;;;;;4997530;28;20039;-91
2022/02/17 10:06:10;;;;;;;17.05;2.10;;;12.20;87.20;;;;;;4980527;28;20117;-90
2022/02/17 10:08:37;;;;;;;20.70;2.45;;;12.30;88.50;;;;;;4977449;28;20475;-89
2022/02/17 10:11:05;;;;;;;16.73;2.22;;;12.30;89.30;;;;;;4981993;28;20092;-91
2022/02/17 10:13:31;;;;;;;17.95;2.33;;;12.30;88.70;;;;;;4979357;28;20037;-88
2022/02/17 10:15:58;;;;;;;15.48;2.22;;;12.30;90.00;;;;;;4980193;28;20117;-91
2022/02/17 10:18:27;;;;;;;14.85;2.38;;;12.30;90.10;;;;;;5001246;28;20026;-90
2022/02/17 10:21:09;;;;;;;13.18;2.08;;;12.40;90.30;;;;;;4984680;28;20093;-91
2022/02/17 10:23:43;;;;;;;16.75;2.28;;;12.50;88.40;;;;;;4994021;28;20033;-91
2022/02/17 10:26:10;;;;;;;11.88;2.53;;;12.70;88.40;;;;;;4984957;28;20480;-90
2022/02/17 10:28:39;;;;;;;10.57;1.73;;;12.60;89.50;;;;;;4982960;28;20034;-90
2022/02/17 10:31:06;;;;;;;12.75;2.17;;;12.60;87.00;;;;;;4983916;28;20031;-91
2022/02/17 10:33:40;;;;;;;11.05;1.83;;;12.60;88.50;;;;;;5000707;28;20034;-87
2022/02/17 10:36:06;;;;;;;14.93;1.88;;;12.60;88.50;;;;;;4984594;28;20073;-90
2022/02/17 10:38:32;;;;;;;10.10;2.15;;;12.70;88.90;;;;;;4983768;28;20038;-88
2022/02/17 10:40:58;;;;;;;13.98;2.45;;;12.60;90.00;;;;;;4980926;28;20117;-90
2022/02/17 10:43:28;;;;;;;14.40;2.17;;;12.60;90.40;;;;;;4982262;28;20026;-92
2022/02/17 10:45:54;;;;;;;12.32;2.28;;;12.60;86.30;;;;;;4998991;28;20114;-90
2022/02/17 10:48:22;;;;;;;13.43;2.30;;;12.60;87.00;;;;;;4980686;28;20054;-91
2022/02/17 10:51:10;;;;;;;11.15;2.25;;;12.60;83.60;;;;;;4982854;28;20110;-89
2022/02/17 10:53:43;;;;;;;9.02;1.98;;;12.60;83.20;;;;;;4979139;28;20029;-88
2022/02/17 10:56:11;;;;;;;18.30;2.55;;;12.60;84.60;;;;;;4980411;28;20030;-92
2022/02/17 10:58:48;;;;;;;10.95;1.77;;;12.60;87.10;;;;;;4978876;28;20084;-92
2022/02/17 11:01:19;;;;;;;15.15;2.15;;;12.60;87.40;;;;;;4976221;28;20026;-91
2022/02/17 11:03:48;;;;;;;11.80;2.03;;;12.60;89.30;;;;;;4978997;28;20031;-92
2022/02/17 11:06:15;;;;;;;10.73;1.40;;;12.70;87.70;;;;;;4979762;28;20031;-84
2022/02/17 11:08:43;;;;;;;15.60;1.98;;;12.70;87.10;;;;;;4997303;28;20048;-89
2022/02/17 11:11:10;;;;;;;16.27;2.13;;;12.70;87.00;;;;;;4996813;28;20109;-83
2022/02/17 11:13:36;;;;;;;15.38;2.20;;;12.70;86.10;;;;;;4979189;28;20033;-88
2022/02/17 11:16:04;;;;;;;13.57;2.50;;;12.70;87.70;;;;;;4992771;28;20022;-85
2022/02/17 11:18:31;;;;;;;14.73;2.63;;;12.80;85.40;;;;;;4976277;28;20037;-83
2022/02/17 11:20:57;;;;;;;11.48;2.17;;;12.80;84.40;;;;;;4978393;28;20062;-89
2022/02/17 11:23:32;;;;;;;14.82;2.13;;;12.80;84.10;;;;;;4978773;28;20113;-91
2022/02/17 11:25:59;;;;;;;13.48;2.20;;;12.90;82.10;;;;;;4994921;28;20054;-89
2022/02/17 11:28:36;;;;;;;15.63;2.17;;;12.90;82.20;;;;;;4994880;28;20062;-88
2022/02/17 11:31:06;;;;;;;18.88;2.40;;;12.80;80.90;;;;;;4978668;28;20041;-89
2022/02/17 11:33:33;;;;;;;14.68;1.95;;;12.80;83.00;;;;;;4978075;28;20037;-87
2022/02/17 11:36:08;;;;;;;14.50;2.17;;;12.80;82.70;;;;;;4978751;28;20030;-86
2022/02/17 11:38:36;;;;;;;14.65;2.45;;;12.80;82.40;;;;;;4978283;28;20031;-87
2022/02/17 11:41:11;;;;;;;11.77;1.70;;;12.70;81.80;;;;;;4978230;28;20038;-89
2022/02/17 11:43:42;;;;;;;15.85;2.22;;;12.70;83.00;;;;;;4977534;28;20030;-87
2022/02/17 11:46:09;;;;;;;12.88;2.55;;;12.70;81.70;;;;;;4978192;28;20109;-86
2022/02/17 11:48:51;;;;;;;18.23;2.00;;;12.80;81.00;;;;;;4961801;28;20559;-82
2022/02/17 11:51:22;;;;;;;10.70;1.98;;;12.70;80.10;;;;;;4961392;28;20134;-81
2022/02/17 11:54:14;;;;;;;15.38;2.45;;;12.80;81.20;;;;;;4978022;28;20045;-86
2022/02/17 11:56:40;;;;;;;13.73;1.80;;;12.70;78.10;;;;;;4994406;28;20031;-87
2022/02/17 11:59:38;;;;;;;12.70;1.95;;;12.80;80.20;;;;;;4974503;28;20027;-84
2022/02/17 12:02:08;;;;;;;11.52;1.98;;;12.80;79.70;;;;;;4927145;28;20057;-84
2022/02/17 12:04:35;;;;;;;11.02;2.08;;;12.80;80.40;;;;;;4977000;28;20080;-82
2022/02/17 12:07:30;;;;;;;14.38;1.73;;;12.80;81.30;;;;;;4978010;28;20018;-90
2022/02/17 12:09:55;;;;;;;11.23;1.63;;;12.80;76.70;;;;;;4978093;28;20033;-86
2022/02/17 12:12:22;;;;;;;11.35;1.98;;;12.80;75.20;;;;;;4994878;28;20030;-87
2022/02/17 12:14:53;;;;;;;8.65;2.00;;;12.80;76.00;;;;;;4995294;28;20026;-90
2022/02/17 12:17:31;;;;;;;9.90;1.75;;;12.70;76.10;;;;;;4985123;28;20124;-89
2022/02/17 12:20:22;;;;;;;9.38;2.17;;;12.80;77.20;;;;;;4994112;28;20078;-89
2022/02/17 12:22:51;;;;;;;14.43;1.93;;;12.80;78.20;;;;;;4994321;28;20026;-87
2022/02/17 12:25:24;;;;;;;15.35;1.80;;;12.80;77.50;;;;;;4993460;28;20027;-82
2022/02/17 12:27:53;;;;;;;10.73;2.55;;;12.70;76.50;;;;;;4994221;28;20031;-87
2022/02/17 12:30:46;;;;;;;11.27;2.20;;;12.70;76.40;;;;;;4994273;28;20026;-80
2022/02/17 12:33:20;;;;;;;15.63;2.45;;;12.70;77.80;;;;;;4991216;28;20045;-82
2022/02/17 12:35:57;;;;;;;18.33;2.78;;;12.80;78.70;;;;;;4993425;28;20116;-82
2022/02/17 12:38:24;;;;;;;18.30;2.17;;;12.80;78.00;;;;;;4993227;28;20026;-82
2022/02/17 12:40:51;;;;;;;9.00;1.75;;;12.80;80.30;;;;;;4994628;28;20456;-82
2022/02/17 12:43:28;;;;;;;11.27;1.90;;;12.70;82.10;;;;;;4994643;28;20431;-81
2022/02/17 12:45:55;;;;;;;11.43;1.55;;;12.70;82.90;;;;;;4993299;28;20027;-83